sensor_id;sensor_type;location;lat;lon;timestamp;temperature;humidity
66670;DHT22;53568;52.164;4.472;2022-10-16T00:01:46;16.33;67.56
66670;DHT22;53568;52.164;4.472;2022-10-16T00:04:12;16.39;67.60
66670;DHT22;53568;52.164;4.472;2022-10-16T00:06:38;16.45;67.37
66670;DHT22;53568;52.164;4.472;2022-10-16T00:09:04;16.42;67.42
66670;DHT22;53568;52.164;4.472;2022-10-16T00:11:36;16.35;67.73
66670;DHT22;53568;52.164;4.472;2022-10-16T00:14:06;16.28;68.10
66670;DHT22;53568;52.164;4.472;2022-10-16T00:16:34;16.39;67.52
66670;DHT22;53568;52.164;4.472;2022-10-16T00:18:59;16.32;67.26
66670;DHT22;53568;52.164;4.472;2022-10-16T00:21:28;16.45;67.31
66670;DHT22;53568;52.164;4.472;2022-10-16T00:23:59;16.41;67.23
66670;DHT22;53568;52.164;4.472;2022-10-16T00:26:28;16.39;67.05
66670;DHT22;53568;52.164;4.472;2022-10-16T00:28:54;16.33;67.28
66670;DHT22;53568;52.164;4.472;2022-10-16T00:31:21;16.33;67.36
66670;DHT22;53568;52.164;4.472;2022-10-16T00:33:48;16.33;67.04
66670;DHT22;53568;52.164;4.472;2022-10-16T00:36:16;16.30;67.53
66670;DHT22;53568;52.164;4.472;2022-10-16T00:38:43;16.36;67.30
66670;DHT22;53568;52.164;4.472;2022-10-16T00:41:12;16.32;67.27
66670;DHT22;53568;52.164;4.472;2022-10-16T00:43:48;16.30;67.68
66670;DHT22;53568;52.164;4.472;2022-10-16T00:46:19;16.33;67.46
66670;DHT22;53568;52.164;4.472;2022-10-16T00:49:03;16.26;67.90
66670;DHT22;53568;52.164;4.472;2022-10-16T00:51:33;16.24;67.77
66670;DHT22;53568;52.164;4.472;2022-10-16T00:54:02;16.16;68.23
66670;DHT22;53568;52.164;4.472;2022-10-16T00:56:28;16.26;67.95
66670;DHT22;53568;52.164;4.472;2022-10-16T00:58:54;16.33;68.07
66670;DHT22;53568;52.164;4.472;2022-10-16T01:01:19;16.33;68.15
66670;DHT22;53568;52.164;4.472;2022-10-16T01:03:45;16.29;68.19
66670;DHT22;53568;52.164;4.472;2022-10-16T01:14:53;16.22;69.20
66670;DHT22;53568;52.164;4.472;2022-10-16T01:17:28;16.08;69.65
66670;DHT22;53568;52.164;4.472;2022-10-16T01:25:20;16.08;70.26
66670;DHT22;53568;52.164;4.472;2022-10-16T01:27:48;16.11;70.24
66670;DHT22;53568;52.164;4.472;2022-10-16T01:30:23;16.12;70.31
66670;DHT22;53568;52.164;4.472;2022-10-16T01:32:57;16.14;70.01
66670;DHT22;53568;52.164;4.472;2022-10-16T01:35:28;16.05;70.52
66670;DHT22;53568;52.164;4.472;2022-10-16T01:38:00;16.00;70.82
66670;DHT22;53568;52.164;4.472;2022-10-16T01:40:32;15.97;71.04
66670;DHT22;53568;52.164;4.472;2022-10-16T01:43:14;16.01;71.20
66670;DHT22;53568;52.164;4.472;2022-10-16T01:45:41;16.06;71.06
66670;DHT22;53568;52.164;4.472;2022-10-16T01:48:12;15.95;71.51
66670;DHT22;53568;52.164;4.472;2022-10-16T01:50:42;15.97;71.67
66670;DHT22;53568;52.164;4.472;2022-10-16T01:53:12;16.00;71.61
66670;DHT22;53568;52.164;4.472;2022-10-16T01:55:43;15.90;72.07
66670;DHT22;53568;52.164;4.472;2022-10-16T01:58:12;15.92;72.05
66670;DHT22;53568;52.164;4.472;2022-10-16T02:00:43;15.82;72.59
66670;DHT22;53568;52.164;4.472;2022-10-16T02:03:13;15.90;72.27
66670;DHT22;53568;52.164;4.472;2022-10-16T02:05:45;15.87;72.41
66670;DHT22;53568;52.164;4.472;2022-10-16T02:08:11;15.90;72.47
66670;DHT22;53568;52.164;4.472;2022-10-16T02:10:38;15.81;72.91
66670;DHT22;53568;52.164;4.472;2022-10-16T02:13:17;15.84;73.03
66670;DHT22;53568;52.164;4.472;2022-10-16T02:15:44;15.77;73.52
66670;DHT22;53568;52.164;4.472;2022-10-16T02:18:10;15.70;73.80
66670;DHT22;53568;52.164;4.472;2022-10-16T02:21:00;15.67;74.04
66670;DHT22;53568;52.164;4.472;2022-10-16T02:26:21;15.68;73.90
66670;DHT22;53568;52.164;4.472;2022-10-16T02:28:55;15.60;74.42
66670;DHT22;53568;52.164;4.472;2022-10-16T02:31:28;15.64;74.26
66670;DHT22;53568;52.164;4.472;2022-10-16T02:33:58;15.61;74.41
66670;DHT22;53568;52.164;4.472;2022-10-16T02:36:26;15.67;74.18
66670;DHT22;53568;52.164;4.472;2022-10-16T02:38:53;15.57;74.15
66670;DHT22;53568;52.164;4.472;2022-10-16T02:41:21;15.58;74.35
66670;DHT22;53568;52.164;4.472;2022-10-16T02:43:47;15.61;74.37
66670;DHT22;53568;52.164;4.472;2022-10-16T02:46:12;15.65;74.07
66670;DHT22;53568;52.164;4.472;2022-10-16T02:48:38;15.71;73.81
66670;DHT22;53568;52.164;4.472;2022-10-16T02:51:04;15.68;73.97
66670;DHT22;53568;52.164;4.472;2022-10-16T02:53:30;15.67;73.91
66670;DHT22;53568;52.164;4.472;2022-10-16T02:55:55;15.70;73.99
66670;DHT22;53568;52.164;4.472;2022-10-16T02:58:21;15.74;73.98
66670;DHT22;53568;52.164;4.472;2022-10-16T03:00:46;15.72;73.81
66670;DHT22;53568;52.164;4.472;2022-10-16T03:03:12;15.68;74.02
66670;DHT22;53568;52.164;4.472;2022-10-16T03:05:37;15.62;74.17
66670;DHT22;53568;52.164;4.472;2022-10-16T03:08:03;15.53;74.70
66670;DHT22;53568;52.164;4.472;2022-10-16T03:10:39;15.64;74.60
66670;DHT22;53568;52.164;4.472;2022-10-16T03:13:05;15.64;74.46
66670;DHT22;53568;52.164;4.472;2022-10-16T03:15:30;15.65;74.30
66670;DHT22;53568;52.164;4.472;2022-10-16T03:18:00;15.60;74.63
66670;DHT22;53568;52.164;4.472;2022-10-16T03:20:26;15.68;74.33
66670;DHT22;53568;52.164;4.472;2022-10-16T03:23:00;15.57;74.81
66670;DHT22;53568;52.164;4.472;2022-10-16T03:25:27;15.61;74.84
66670;DHT22;53568;52.164;4.472;2022-10-16T03:27:53;15.57;74.96
66670;DHT22;53568;52.164;4.472;2022-10-16T03:30:18;15.60;74.94
66670;DHT22;53568;52.164;4.472;2022-10-16T03:32:44;15.57;75.04
66670;DHT22;53568;52.164;4.472;2022-10-16T03:35:12;15.62;74.79
66670;DHT22;53568;52.164;4.472;2022-10-16T03:37:37;15.55;75.05
66670;DHT22;53568;52.164;4.472;2022-10-16T03:40:04;15.54;75.33
66670;DHT22;53568;52.164;4.472;2022-10-16T03:42:30;15.58;75.16
66670;DHT22;53568;52.164;4.472;2022-10-16T03:44:58;15.62;75.00
66670;DHT22;53568;52.164;4.472;2022-10-16T03:47:23;15.72;74.60
66670;DHT22;53568;52.164;4.472;2022-10-16T03:49:49;15.60;75.13
66670;DHT22;53568;52.164;4.472;2022-10-16T03:52:16;15.57;75.15
66670;DHT22;53568;52.164;4.472;2022-10-16T03:54:41;15.61;74.96
66670;DHT22;53568;52.164;4.472;2022-10-16T03:57:07;15.64;74.99
66670;DHT22;53568;52.164;4.472;2022-10-16T03:59:32;15.67;74.94
66670;DHT22;53568;52.164;4.472;2022-10-16T04:01:58;15.77;74.54
66670;DHT22;53568;52.164;4.472;2022-10-16T04:04:23;15.75;74.63
66670;DHT22;53568;52.164;4.472;2022-10-16T04:06:50;15.70;74.78
66670;DHT22;53568;52.164;4.472;2022-10-16T04:09:16;15.82;74.32
66670;DHT22;53568;52.164;4.472;2022-10-16T04:11:41;15.78;74.30
66670;DHT22;53568;52.164;4.472;2022-10-16T04:14:07;15.80;74.50
66670;DHT22;53568;52.164;4.472;2022-10-16T04:16:33;15.87;74.48
66670;DHT22;53568;52.164;4.472;2022-10-16T04:18:58;15.85;74.56
66670;DHT22;53568;52.164;4.472;2022-10-16T04:21:24;15.91;74.24
66670;DHT22;53568;52.164;4.472;2022-10-16T04:23:51;15.85;74.25
66670;DHT22;53568;52.164;4.472;2022-10-16T04:26:17;15.84;74.49
66670;DHT22;53568;52.164;4.472;2022-10-16T04:28:43;15.81;74.58
66670;DHT22;53568;52.164;4.472;2022-10-16T04:31:09;15.90;74.47
66670;DHT22;53568;52.164;4.472;2022-10-16T04:33:34;15.90;74.37
66670;DHT22;53568;52.164;4.472;2022-10-16T04:36:01;15.90;74.45
66670;DHT22;53568;52.164;4.472;2022-10-16T04:38:28;15.90;74.27
66670;DHT22;53568;52.164;4.472;2022-10-16T04:40:54;15.78;75.04
66670;DHT22;53568;52.164;4.472;2022-10-16T04:43:20;15.84;74.93
66670;DHT22;53568;52.164;4.472;2022-10-16T04:45:49;15.82;75.25
66670;DHT22;53568;52.164;4.472;2022-10-16T04:48:16;15.68;76.08
66670;DHT22;53568;52.164;4.472;2022-10-16T04:50:42;15.58;76.54
66670;DHT22;53568;52.164;4.472;2022-10-16T04:53:07;15.60;76.60
66670;DHT22;53568;52.164;4.472;2022-10-16T04:55:33;15.58;76.87
66670;DHT22;53568;52.164;4.472;2022-10-16T04:57:59;15.55;77.15
66670;DHT22;53568;52.164;4.472;2022-10-16T05:00:24;15.49;77.52
66670;DHT22;53568;52.164;4.472;2022-10-16T05:02:50;15.50;77.54
66670;DHT22;53568;52.164;4.472;2022-10-16T05:05:19;15.50;77.81
66670;DHT22;53568;52.164;4.472;2022-10-16T05:07:46;15.40;78.10
66670;DHT22;53568;52.164;4.472;2022-10-16T05:10:14;15.40;78.29
66670;DHT22;53568;52.164;4.472;2022-10-16T05:12:40;15.46;78.23
66670;DHT22;53568;52.164;4.472;2022-10-16T05:15:05;15.43;78.45
66670;DHT22;53568;52.164;4.472;2022-10-16T05:17:33;15.34;78.91
66670;DHT22;53568;52.164;4.472;2022-10-16T05:19:59;15.28;79.28
66670;DHT22;53568;52.164;4.472;2022-10-16T05:22:56;15.24;79.37
66670;DHT22;53568;52.164;4.472;2022-10-16T05:25:36;15.26;79.54
66670;DHT22;53568;52.164;4.472;2022-10-16T05:28:05;15.22;79.71
66670;DHT22;53568;52.164;4.472;2022-10-16T05:30:39;15.16;80.35
66670;DHT22;53568;52.164;4.472;2022-10-16T05:33:04;15.16;80.33
66670;DHT22;53568;52.164;4.472;2022-10-16T05:35:30;15.19;80.47
66670;DHT22;53568;52.164;4.472;2022-10-16T05:37:56;15.23;80.68
66670;DHT22;53568;52.164;4.472;2022-10-16T05:40:21;15.20;80.94
66670;DHT22;53568;52.164;4.472;2022-10-16T05:42:47;15.31;80.89
66670;DHT22;53568;52.164;4.472;2022-10-16T05:45:12;15.34;80.87
66670;DHT22;53568;52.164;4.472;2022-10-16T05:47:38;15.41;80.62
66670;DHT22;53568;52.164;4.472;2022-10-16T05:50:04;15.40;80.70
66670;DHT22;53568;52.164;4.472;2022-10-16T05:52:30;15.28;80.81
66670;DHT22;53568;52.164;4.472;2022-10-16T05:54:55;15.24;80.97
66670;DHT22;53568;52.164;4.472;2022-10-16T05:57:21;15.19;81.29
66670;DHT22;53568;52.164;4.472;2022-10-16T05:59:46;15.23;81.11
66670;DHT22;53568;52.164;4.472;2022-10-16T06:02:13;15.20;81.19
66670;DHT22;53568;52.164;4.472;2022-10-16T06:04:39;15.24;80.91
66670;DHT22;53568;52.164;4.472;2022-10-16T06:07:05;15.16;81.16
66670;DHT22;53568;52.164;4.472;2022-10-16T06:09:30;15.08;81.57
66670;DHT22;53568;52.164;4.472;2022-10-16T06:11:55;15.04;81.48
66670;DHT22;53568;52.164;4.472;2022-10-16T06:14:21;15.04;81.33
66670;DHT22;53568;52.164;4.472;2022-10-16T06:16:47;14.99;81.33
66670;DHT22;53568;52.164;4.472;2022-10-16T06:19:12;14.99;81.50
66670;DHT22;53568;52.164;4.472;2022-10-16T06:21:38;15.02;81.41
66670;DHT22;53568;52.164;4.472;2022-10-16T06:24:03;15.07;81.17
66670;DHT22;53568;52.164;4.472;2022-10-16T06:26:30;15.02;81.37
66670;DHT22;53568;52.164;4.472;2022-10-16T06:28:58;14.99;81.35
66670;DHT22;53568;52.164;4.472;2022-10-16T06:31:41;14.99;81.28
66670;DHT22;53568;52.164;4.472;2022-10-16T06:34:09;15.03;81.47
66670;DHT22;53568;52.164;4.472;2022-10-16T06:36:36;15.04;81.16
66670;DHT22;53568;52.164;4.472;2022-10-16T06:39:04;15.00;81.23
66670;DHT22;53568;52.164;4.472;2022-10-16T06:41:31;15.06;80.89
66670;DHT22;53568;52.164;4.472;2022-10-16T06:43:59;15.00;80.87
66670;DHT22;53568;52.164;4.472;2022-10-16T06:46:26;15.04;80.48
66670;DHT22;53568;52.164;4.472;2022-10-16T06:48:53;15.04;80.49
66670;DHT22;53568;52.164;4.472;2022-10-16T06:51:21;15.02;80.54
66670;DHT22;53568;52.164;4.472;2022-10-16T06:53:49;14.99;80.10
66670;DHT22;53568;52.164;4.472;2022-10-16T06:56:18;14.95;80.45
66670;DHT22;53568;52.164;4.472;2022-10-16T06:58:45;15.00;80.20
66670;DHT22;53568;52.164;4.472;2022-10-16T07:01:11;14.96;80.15
66670;DHT22;53568;52.164;4.472;2022-10-16T07:03:40;14.95;80.42
66670;DHT22;53568;52.164;4.472;2022-10-16T07:06:07;15.03;80.06
66670;DHT22;53568;52.164;4.472;2022-10-16T07:08:35;15.10;79.88
66670;DHT22;53568;52.164;4.472;2022-10-16T07:11:06;15.04;79.94
66670;DHT22;53568;52.164;4.472;2022-10-16T07:13:36;15.07;79.82
66670;DHT22;53568;52.164;4.472;2022-10-16T07:16:19;15.13;79.72
66670;DHT22;53568;52.164;4.472;2022-10-16T07:18:45;15.11;79.81
66670;DHT22;53568;52.164;4.472;2022-10-16T07:21:16;15.22;79.75
66670;DHT22;53568;52.164;4.472;2022-10-16T07:23:42;15.30;79.64
66670;DHT22;53568;52.164;4.472;2022-10-16T07:26:08;15.33;79.56
66670;DHT22;53568;52.164;4.472;2022-10-16T07:28:34;15.34;79.61
66670;DHT22;53568;52.164;4.472;2022-10-16T07:31:06;15.37;79.48
66670;DHT22;53568;52.164;4.472;2022-10-16T07:33:32;15.37;79.60
66670;DHT22;53568;52.164;4.472;2022-10-16T07:35:58;15.40;79.65
66670;DHT22;53568;52.164;4.472;2022-10-16T07:38:24;15.44;79.55
66670;DHT22;53568;52.164;4.472;2022-10-16T07:40:58;15.50;79.22
66670;DHT22;53568;52.164;4.472;2022-10-16T07:43:24;15.60;79.17
66670;DHT22;53568;52.164;4.472;2022-10-16T07:45:51;15.57;79.18
66670;DHT22;53568;52.164;4.472;2022-10-16T07:48:17;15.60;79.18
66670;DHT22;53568;52.164;4.472;2022-10-16T07:50:44;15.62;79.03
66670;DHT22;53568;52.164;4.472;2022-10-16T07:53:11;15.67;79.14
66670;DHT22;53568;52.164;4.472;2022-10-16T07:55:37;15.70;79.33
66670;DHT22;53568;52.164;4.472;2022-10-16T07:58:03;15.72;79.11
66670;DHT22;53568;52.164;4.472;2022-10-16T08:00:28;15.70;79.14
66670;DHT22;53568;52.164;4.472;2022-10-16T08:02:54;15.84;78.90
66670;DHT22;53568;52.164;4.472;2022-10-16T08:05:19;15.92;78.71
66670;DHT22;53568;52.164;4.472;2022-10-16T08:07:49;15.97;78.75
66670;DHT22;53568;52.164;4.472;2022-10-16T08:10:19;16.08;78.36
66670;DHT22;53568;52.164;4.472;2022-10-16T08:12:45;16.09;78.24
66670;DHT22;53568;52.164;4.472;2022-10-16T08:15:11;16.11;78.36
66670;DHT22;53568;52.164;4.472;2022-10-16T08:17:40;16.26;77.80
66670;DHT22;53568;52.164;4.472;2022-10-16T08:20:06;16.33;77.38
66670;DHT22;53568;52.164;4.472;2022-10-16T08:22:31;16.25;77.65
66670;DHT22;53568;52.164;4.472;2022-10-16T08:24:57;16.30;77.37
66670;DHT22;53568;52.164;4.472;2022-10-16T08:27:22;16.24;77.09
66670;DHT22;53568;52.164;4.472;2022-10-16T08:29:48;16.18;77.22
66670;DHT22;53568;52.164;4.472;2022-10-16T08:32:14;16.21;77.23
66670;DHT22;53568;52.164;4.472;2022-10-16T08:34:40;16.18;77.32
66670;DHT22;53568;52.164;4.472;2022-10-16T08:37:05;16.19;77.14
66670;DHT22;53568;52.164;4.472;2022-10-16T08:39:33;16.21;77.04
66670;DHT22;53568;52.164;4.472;2022-10-16T08:42:23;16.21;77.01
66670;DHT22;53568;52.164;4.472;2022-10-16T08:47:43;16.41;76.71
66670;DHT22;53568;52.164;4.472;2022-10-16T08:50:13;16.52;76.48
66670;DHT22;53568;52.164;4.472;2022-10-16T08:52:44;16.53;76.46
66670;DHT22;53568;52.164;4.472;2022-10-16T08:55:31;16.65;76.11
66670;DHT22;53568;52.164;4.472;2022-10-16T08:57:59;16.77;75.85
66670;DHT22;53568;52.164;4.472;2022-10-16T09:00:26;16.86;75.61
66670;DHT22;53568;52.164;4.472;2022-10-16T09:06:21;17.04;75.02
66670;DHT22;53568;52.164;4.472;2022-10-16T09:09:32;17.20;74.39
66670;DHT22;53568;52.164;4.472;2022-10-16T09:12:19;17.27;74.42
66670;DHT22;53568;52.164;4.472;2022-10-16T09:15:13;17.31;74.02
66670;DHT22;53568;52.164;4.472;2022-10-16T09:18:01;17.31;73.66
66670;DHT22;53568;52.164;4.472;2022-10-16T09:20:36;17.34;73.58
66670;DHT22;53568;52.164;4.472;2022-10-16T09:25:31;17.38;73.03
66670;DHT22;53568;52.164;4.472;2022-10-16T09:27:58;17.41;73.16
66670;DHT22;53568;52.164;4.472;2022-10-16T09:30:28;17.55;73.01
66670;DHT22;53568;52.164;4.472;2022-10-16T09:32:58;17.64;72.77
66670;DHT22;53568;52.164;4.472;2022-10-16T09:35:39;17.61;72.63
66670;DHT22;53568;52.164;4.472;2022-10-16T09:38:07;17.60;72.39
66670;DHT22;53568;52.164;4.472;2022-10-16T09:40:38;17.53;72.27
66670;DHT22;53568;52.164;4.472;2022-10-16T09:46:31;17.63;71.76
66670;DHT22;53568;52.164;4.472;2022-10-16T09:48:59;17.64;71.37
66670;DHT22;53568;52.164;4.472;2022-10-16T09:51:34;17.60;71.02
66670;DHT22;53568;52.164;4.472;2022-10-16T09:56:34;17.95;70.28
66670;DHT22;53568;52.164;4.472;2022-10-16T09:59:19;17.92;70.48
66670;DHT22;53568;52.164;4.472;2022-10-16T10:01:53;17.92;69.89
66670;DHT22;53568;52.164;4.472;2022-10-16T10:04:22;17.91;68.75
66670;DHT22;53568;52.164;4.472;2022-10-16T10:06:53;17.98;68.38
66670;DHT22;53568;52.164;4.472;2022-10-16T10:09:58;17.98;67.24
66670;DHT22;53568;52.164;4.472;2022-10-16T10:12:24;17.97;67.14
66670;DHT22;53568;52.164;4.472;2022-10-16T10:14:52;18.02;66.46
66670;DHT22;53568;52.164;4.472;2022-10-16T10:17:22;18.09;66.39
66670;DHT22;53568;52.164;4.472;2022-10-16T10:25:14;18.26;66.27
66670;DHT22;53568;52.164;4.472;2022-10-16T10:30:57;18.08;63.97
66670;DHT22;53568;52.164;4.472;2022-10-16T10:36:39;18.00;58.64
66670;DHT22;53568;52.164;4.472;2022-10-16T10:50:50;18.16;58.39
66670;DHT22;53568;52.164;4.472;2022-10-16T10:58:48;18.29;58.22
66670;DHT22;53568;52.164;4.472;2022-10-16T11:07:09;18.46;57.99
66670;DHT22;53568;52.164;4.472;2022-10-16T11:09:43;18.48;57.99
66670;DHT22;53568;52.164;4.472;2022-10-16T11:12:30;18.53;57.40
66670;DHT22;53568;52.164;4.472;2022-10-16T11:15:04;18.60;56.41
66670;DHT22;53568;52.164;4.472;2022-10-16T11:17:42;18.66;56.03
66670;DHT22;53568;52.164;4.472;2022-10-16T11:20:23;18.59;54.76
66670;DHT22;53568;52.164;4.472;2022-10-16T11:23:18;18.48;54.89
66670;DHT22;53568;52.164;4.472;2022-10-16T11:25:48;18.36;54.99
66670;DHT22;53568;52.164;4.472;2022-10-16T11:28:29;18.46;54.88
66670;DHT22;53568;52.164;4.472;2022-10-16T11:31:28;18.59;55.33
66670;DHT22;53568;52.164;4.472;2022-10-16T11:37:01;18.76;56.01
66670;DHT22;53568;52.164;4.472;2022-10-16T11:39:30;18.72;56.41
66670;DHT22;53568;52.164;4.472;2022-10-16T11:42:13;18.73;55.65
66670;DHT22;53568;52.164;4.472;2022-10-16T11:47:50;18.96;55.11
66670;DHT22;53568;52.164;4.472;2022-10-16T11:50:24;19.04;54.07
66670;DHT22;53568;52.164;4.472;2022-10-16T11:53:01;19.06;52.52
66670;DHT22;53568;52.164;4.472;2022-10-16T11:55:41;19.02;51.82
66670;DHT22;53568;52.164;4.472;2022-10-16T11:58:09;19.07;52.00
66670;DHT22;53568;52.164;4.472;2022-10-16T12:01:14;18.96;51.49
66670;DHT22;53568;52.164;4.472;2022-10-16T12:06:37;19.10;52.49
66670;DHT22;53568;52.164;4.472;2022-10-16T12:09:17;19.26;52.49
66670;DHT22;53568;52.164;4.472;2022-10-16T12:11:45;19.27;51.50
66670;DHT22;53568;52.164;4.472;2022-10-16T12:16:59;19.17;52.08
66670;DHT22;53568;52.164;4.472;2022-10-16T12:19:27;19.06;52.28
66670;DHT22;53568;52.164;4.472;2022-10-16T12:21:56;19.11;51.84
66670;DHT22;53568;52.164;4.472;2022-10-16T12:24:41;19.13;52.31
66670;DHT22;53568;52.164;4.472;2022-10-16T12:27:30;19.19;52.21
66670;DHT22;53568;52.164;4.472;2022-10-16T12:30:00;19.31;52.27
66670;DHT22;53568;52.164;4.472;2022-10-16T12:32:32;19.38;52.38
66670;DHT22;53568;52.164;4.472;2022-10-16T12:35:00;19.28;52.85
66670;DHT22;53568;52.164;4.472;2022-10-16T12:37:33;19.34;53.07
66670;DHT22;53568;52.164;4.472;2022-10-16T12:40:12;19.40;53.50
66670;DHT22;53568;52.164;4.472;2022-10-16T12:42:38;19.41;53.83
66670;DHT22;53568;52.164;4.472;2022-10-16T12:47:54;19.37;54.17
66670;DHT22;53568;52.164;4.472;2022-10-16T12:50:29;19.35;53.30
66670;DHT22;53568;52.164;4.472;2022-10-16T12:52:59;19.31;53.10
66670;DHT22;53568;52.164;4.472;2022-10-16T12:55:26;19.33;52.83
66670;DHT22;53568;52.164;4.472;2022-10-16T13:01:25;19.27;52.96
66670;DHT22;53568;52.164;4.472;2022-10-16T13:03:57;19.27;53.16
66670;DHT22;53568;52.164;4.472;2022-10-16T13:06:38;19.16;53.34
66670;DHT22;53568;52.164;4.472;2022-10-16T13:11:44;19.19;52.92
66670;DHT22;53568;52.164;4.472;2022-10-16T13:17:44;19.00;53.17
66670;DHT22;53568;52.164;4.472;2022-10-16T13:23:00;18.96;53.97
66670;DHT22;53568;52.164;4.472;2022-10-16T13:25:40;19.03;54.16
66670;DHT22;53568;52.164;4.472;2022-10-16T13:28:12;18.99;53.78
66670;DHT22;53568;52.164;4.472;2022-10-16T13:30:40;18.99;52.89
66670;DHT22;53568;52.164;4.472;2022-10-16T13:35:58;18.89;52.42
66670;DHT22;53568;52.164;4.472;2022-10-16T13:38:26;18.80;53.21
66670;DHT22;53568;52.164;4.472;2022-10-16T13:41:02;18.89;54.06
66670;DHT22;53568;52.164;4.472;2022-10-16T13:43:34;18.95;53.81
66670;DHT22;53568;52.164;4.472;2022-10-16T13:46:10;19.06;52.91
66670;DHT22;53568;52.164;4.472;2022-10-16T13:48:37;19.06;52.41
66670;DHT22;53568;52.164;4.472;2022-10-16T13:51:13;19.06;53.02
66670;DHT22;53568;52.164;4.472;2022-10-16T13:53:39;19.06;52.42
66670;DHT22;53568;52.164;4.472;2022-10-16T13:56:13;18.90;51.76
66670;DHT22;53568;52.164;4.472;2022-10-16T13:58:40;18.92;52.68
66670;DHT22;53568;52.164;4.472;2022-10-16T14:01:24;18.93;52.87
66670;DHT22;53568;52.164;4.472;2022-10-16T14:03:51;18.96;52.50
66670;DHT22;53568;52.164;4.472;2022-10-16T14:06:21;19.03;52.80
66670;DHT22;53568;52.164;4.472;2022-10-16T14:09:08;19.07;52.70
66670;DHT22;53568;52.164;4.472;2022-10-16T14:11:46;19.07;52.83
66670;DHT22;53568;52.164;4.472;2022-10-16T14:14:15;19.11;52.65
66670;DHT22;53568;52.164;4.472;2022-10-16T14:16:43;19.11;53.46
66670;DHT22;53568;52.164;4.472;2022-10-16T14:19:24;19.06;53.06
66670;DHT22;53568;52.164;4.472;2022-10-16T14:21:54;19.16;53.50
66670;DHT22;53568;52.164;4.472;2022-10-16T14:24:39;19.14;53.62
66670;DHT22;53568;52.164;4.472;2022-10-16T14:27:29;19.10;54.03
66670;DHT22;53568;52.164;4.472;2022-10-16T14:32:32;19.16;55.28
66670;DHT22;53568;52.164;4.472;2022-10-16T14:34:58;19.02;55.83
66670;DHT22;53568;52.164;4.472;2022-10-16T14:37:26;19.02;56.30
66670;DHT22;53568;52.164;4.472;2022-10-16T14:39:54;19.09;56.26
66670;DHT22;53568;52.164;4.472;2022-10-16T14:42:22;19.14;56.50
66670;DHT22;53568;52.164;4.472;2022-10-16T14:44:55;19.07;56.80
66670;DHT22;53568;52.164;4.472;2022-10-16T14:47:25;19.06;57.18
66670;DHT22;53568;52.164;4.472;2022-10-16T14:49:54;19.03;56.99
66670;DHT22;53568;52.164;4.472;2022-10-16T14:52:22;18.99;57.18
66670;DHT22;53568;52.164;4.472;2022-10-16T14:54:49;18.95;57.20
66670;DHT22;53568;52.164;4.472;2022-10-16T14:57:20;18.85;56.62
66670;DHT22;53568;52.164;4.472;2022-10-16T14:59:48;18.75;56.53
66670;DHT22;53568;52.164;4.472;2022-10-16T15:04:54;18.72;56.25
66670;DHT22;53568;52.164;4.472;2022-10-16T15:07:20;18.73;56.53
66670;DHT22;53568;52.164;4.472;2022-10-16T15:09:45;18.73;56.56
66670;DHT22;53568;52.164;4.472;2022-10-16T15:12:11;18.80;56.72
66670;DHT22;53568;52.164;4.472;2022-10-16T15:14:37;18.82;56.52
66670;DHT22;53568;52.164;4.472;2022-10-16T15:17:02;18.86;56.29
66670;DHT22;53568;52.164;4.472;2022-10-16T15:19:28;18.89;56.45
66670;DHT22;53568;52.164;4.472;2022-10-16T15:21:54;18.95;56.41
66670;DHT22;53568;52.164;4.472;2022-10-16T15:24:19;18.95;57.00
66670;DHT22;53568;52.164;4.472;2022-10-16T15:26:45;18.90;56.57
66670;DHT22;53568;52.164;4.472;2022-10-16T15:29:15;18.86;56.21
66670;DHT22;53568;52.164;4.472;2022-10-16T15:31:40;18.83;56.45
66670;DHT22;53568;52.164;4.472;2022-10-16T15:34:10;18.83;56.82
66670;DHT22;53568;52.164;4.472;2022-10-16T15:36:38;18.82;57.07
66670;DHT22;53568;52.164;4.472;2022-10-16T15:39:15;18.85;57.11
66670;DHT22;53568;52.164;4.472;2022-10-16T15:41:41;18.86;56.88
66670;DHT22;53568;52.164;4.472;2022-10-16T15:44:07;18.90;56.72
66670;DHT22;53568;52.164;4.472;2022-10-16T15:46:33;18.89;56.66
66670;DHT22;53568;52.164;4.472;2022-10-16T15:49:00;18.86;56.68
66670;DHT22;53568;52.164;4.472;2022-10-16T15:51:27;18.87;56.93
66670;DHT22;53568;52.164;4.472;2022-10-16T15:53:57;18.86;57.03
66670;DHT22;53568;52.164;4.472;2022-10-16T15:56:23;18.83;57.00
66670;DHT22;53568;52.164;4.472;2022-10-16T15:58:51;18.82;56.48
66670;DHT22;53568;52.164;4.472;2022-10-16T16:01:16;18.80;56.65
66670;DHT22;53568;52.164;4.472;2022-10-16T16:03:42;18.77;56.82
66670;DHT22;53568;52.164;4.472;2022-10-16T16:06:10;18.76;56.78
66670;DHT22;53568;52.164;4.472;2022-10-16T16:08:36;18.76;57.00
66670;DHT22;53568;52.164;4.472;2022-10-16T16:11:09;18.72;57.46
66670;DHT22;53568;52.164;4.472;2022-10-16T16:13:35;18.65;57.48
66670;DHT22;53568;52.164;4.472;2022-10-16T16:16:15;18.65;57.75
66670;DHT22;53568;52.164;4.472;2022-10-16T16:18:41;18.69;57.21
66670;DHT22;53568;52.164;4.472;2022-10-16T16:21:10;18.72;57.31
66670;DHT22;53568;52.164;4.472;2022-10-16T16:23:36;18.67;57.57
66670;DHT22;53568;52.164;4.472;2022-10-16T16:26:15;18.66;56.93
66670;DHT22;53568;52.164;4.472;2022-10-16T16:28:52;18.67;56.40
66670;DHT22;53568;52.164;4.472;2022-10-16T16:31:18;18.63;56.73
66670;DHT22;53568;52.164;4.472;2022-10-16T16:33:44;18.65;56.80
66670;DHT22;53568;52.164;4.472;2022-10-16T16:36:10;18.60;56.99
66670;DHT22;53568;52.164;4.472;2022-10-16T16:38:35;18.62;57.28
66670;DHT22;53568;52.164;4.472;2022-10-16T16:41:22;18.63;57.72
66670;DHT22;53568;52.164;4.472;2022-10-16T16:43:48;18.62;57.86
66670;DHT22;53568;52.164;4.472;2022-10-16T16:46:16;18.66;57.80
66670;DHT22;53568;52.164;4.472;2022-10-16T16:48:42;18.66;57.67
66670;DHT22;53568;52.164;4.472;2022-10-16T16:51:13;18.59;57.72
66670;DHT22;53568;52.164;4.472;2022-10-16T16:53:42;18.57;57.98
66670;DHT22;53568;52.164;4.472;2022-10-16T16:56:08;18.53;58.21
66670;DHT22;53568;52.164;4.472;2022-10-16T16:58:34;18.51;58.60
66670;DHT22;53568;52.164;4.472;2022-10-16T17:01:00;18.46;58.76
66670;DHT22;53568;52.164;4.472;2022-10-16T17:03:32;18.45;58.90
66670;DHT22;53568;52.164;4.472;2022-10-16T17:06:06;18.42;59.17
66670;DHT22;53568;52.164;4.472;2022-10-16T17:08:34;18.41;59.54
66670;DHT22;53568;52.164;4.472;2022-10-16T17:11:00;18.39;59.72
66670;DHT22;53568;52.164;4.472;2022-10-16T17:13:28;18.42;59.84
66670;DHT22;53568;52.164;4.472;2022-10-16T17:15:54;18.39;59.89
66670;DHT22;53568;52.164;4.472;2022-10-16T17:18:22;18.39;60.11
66670;DHT22;53568;52.164;4.472;2022-10-16T17:20:49;18.39;60.35
66670;DHT22;53568;52.164;4.472;2022-10-16T17:23:16;18.36;60.48
66670;DHT22;53568;52.164;4.472;2022-10-16T17:25:43;18.36;60.65
66670;DHT22;53568;52.164;4.472;2022-10-16T17:28:10;18.35;60.85